sensor_id;sensor_type;location;lat;lon;timestamp;P1;durP1;ratioP1;P2;durP2;ratioP2
61433;SDS011;47300;46.192;9.000;2022-11-18T00:00:27;10.85;;;4.97;;
61433;SDS011;47300;46.192;9.000;2022-11-18T00:02:52;9.02;;;5.35;;
61433;SDS011;47300;46.192;9.000;2022-11-18T00:05:18;14.00;;;6.07;;
61433;SDS011;47300;46.192;9.000;2022-11-18T00:07:43;10.73;;;5.80;;
61433;SDS011;47300;46.192;9.000;2022-11-18T00:10:08;13.13;;;5.13;;
61433;SDS011;47300;46.192;9.000;2022-11-18T00:12:34;10.63;;;5.25;;
61433;SDS011;47300;46.192;9.000;2022-11-18T00:15:17;12.05;;;7.32;;
61433;SDS011;47300;46.192;9.000;2022-11-18T00:17:43;15.85;;;7.57;;
61433;SDS011;47300;46.192;9.000;2022-11-18T00:20:08;16.67;;;9.35;;
61433;SDS011;47300;46.192;9.000;2022-11-18T00:22:34;15.40;;;8.55;;
61433;SDS011;47300;46.192;9.000;2022-11-18T00:24:59;16.65;;;9.02;;
61433;SDS011;47300;46.192;9.000;2022-11-18T00:27:28;21.85;;;8.52;;
61433;SDS011;47300;46.192;9.000;2022-11-18T00:29:54;12.80;;;6.80;;
61433;SDS011;47300;46.192;9.000;2022-11-18T00:32:20;11.70;;;6.13;;
61433;SDS011;47300;46.192;9.000;2022-11-18T00:34:45;12.40;;;5.00;;
61433;SDS011;47300;46.192;9.000;2022-11-18T00:37:10;13.02;;;6.15;;
61433;SDS011;47300;46.192;9.000;2022-11-18T00:39:36;15.13;;;7.28;;
61433;SDS011;47300;46.192;9.000;2022-11-18T00:42:01;14.77;;;7.95;;
61433;SDS011;47300;46.192;9.000;2022-11-18T00:44:45;16.02;;;7.60;;
61433;SDS011;47300;46.192;9.000;2022-11-18T00:47:10;20.10;;;7.43;;
61433;SDS011;47300;46.192;9.000;2022-11-18T00:49:35;14.32;;;7.85;;
61433;SDS011;47300;46.192;9.000;2022-11-18T00:52:00;17.35;;;7.40;;
61433;SDS011;47300;46.192;9.000;2022-11-18T00:54:26;12.10;;;6.63;;
61433;SDS011;47300;46.192;9.000;2022-11-18T00:56:51;15.88;;;5.93;;
61433;SDS011;47300;46.192;9.000;2022-11-18T00:59:16;10.40;;;5.47;;
61433;SDS011;47300;46.192;9.000;2022-11-18T01:01:42;12.77;;;5.22;;
61433;SDS011;47300;46.192;9.000;2022-11-18T01:04:07;9.73;;;4.47;;
61433;SDS011;47300;46.192;9.000;2022-11-18T01:06:32;8.77;;;3.90;;
61433;SDS011;47300;46.192;9.000;2022-11-18T01:08:58;10.98;;;4.22;;
61433;SDS011;47300;46.192;9.000;2022-11-18T01:11:23;7.30;;;2.90;;
61433;SDS011;47300;46.192;9.000;2022-11-18T01:14:07;5.38;;;2.97;;
61433;SDS011;47300;46.192;9.000;2022-11-18T01:16:32;8.23;;;2.78;;
61433;SDS011;47300;46.192;9.000;2022-11-18T01:18:58;15.07;;;6.80;;
61433;SDS011;47300;46.192;9.000;2022-11-18T01:21:23;15.13;;;7.72;;
61433;SDS011;47300;46.192;9.000;2022-11-18T01:23:49;16.52;;;7.70;;
61433;SDS011;47300;46.192;9.000;2022-11-18T01:26:15;15.27;;;7.78;;
61433;SDS011;47300;46.192;9.000;2022-11-18T01:28:41;14.02;;;7.38;;
61433;SDS011;47300;46.192;9.000;2022-11-18T01:31:08;13.70;;;7.10;;
61433;SDS011;47300;46.192;9.000;2022-11-18T01:33:35;13.45;;;5.90;;
61433;SDS011;47300;46.192;9.000;2022-11-18T01:36:00;14.43;;;5.82;;
61433;SDS011;47300;46.192;9.000;2022-11-18T01:38:26;11.68;;;4.68;;
61433;SDS011;47300;46.192;9.000;2022-11-18T01:40:52;9.45;;;4.05;;
61433;SDS011;47300;46.192;9.000;2022-11-18T01:43:19;10.25;;;4.40;;
61433;SDS011;47300;46.192;9.000;2022-11-18T01:45:46;12.63;;;5.85;;
61433;SDS011;47300;46.192;9.000;2022-11-18T01:48:24;14.50;;;7.95;;
61433;SDS011;47300;46.192;9.000;2022-11-18T01:50:56;11.75;;;6.13;;
61433;SDS011;47300;46.192;9.000;2022-11-18T01:53:26;7.70;;;4.00;;
61433;SDS011;47300;46.192;9.000;2022-11-18T01:55:55;13.32;;;5.05;;
61433;SDS011;47300;46.192;9.000;2022-11-18T02:00:51;12.68;;;6.47;;
61433;SDS011;47300;46.192;9.000;2022-11-18T02:03:17;15.88;;;7.75;;
61433;SDS011;47300;46.192;9.000;2022-11-18T02:05:43;16.67;;;8.07;;
61433;SDS011;47300;46.192;9.000;2022-11-18T02:08:11;14.88;;;7.20;;
61433;SDS011;47300;46.192;9.000;2022-11-18T02:10:37;15.35;;;7.32;;
61433;SDS011;47300;46.192;9.000;2022-11-18T02:13:03;16.38;;;7.35;;
61433;SDS011;47300;46.192;9.000;2022-11-18T02:18:06;13.30;;;7.35;;
61433;SDS011;47300;46.192;9.000;2022-11-18T02:29:07;12.57;;;6.28;;
61433;SDS011;47300;46.192;9.000;2022-11-18T02:37:13;19.02;;;8.35;;
61433;SDS011;47300;46.192;9.000;2022-11-18T02:39:47;16.17;;;8.27;;
61433;SDS011;47300;46.192;9.000;2022-11-18T02:42:26;13.48;;;9.02;;
61433;SDS011;47300;46.192;9.000;2022-11-18T02:44:57;20.90;;;10.50;;
61433;SDS011;47300;46.192;9.000;2022-11-18T02:47:28;19.60;;;9.57;;
61433;SDS011;47300;46.192;9.000;2022-11-18T02:50:01;16.67;;;9.02;;
61433;SDS011;47300;46.192;9.000;2022-11-18T02:52:30;18.40;;;9.07;;
61433;SDS011;47300;46.192;9.000;2022-11-18T02:54:58;16.13;;;9.30;;
61433;SDS011;47300;46.192;9.000;2022-11-18T02:57:26;15.70;;;8.18;;
61433;SDS011;47300;46.192;9.000;2022-11-18T02:59:54;13.05;;;7.10;;
61433;SDS011;47300;46.192;9.000;2022-11-18T03:02:19;15.50;;;8.05;;
61433;SDS011;47300;46.192;9.000;2022-11-18T03:04:47;13.27;;;8.57;;
61433;SDS011;47300;46.192;9.000;2022-11-18T03:07:17;15.93;;;8.43;;
61433;SDS011;47300;46.192;9.000;2022-11-18T03:09:50;17.70;;;8.63;;
61433;SDS011;47300;46.192;9.000;2022-11-18T03:20:23;15.65;;;7.57;;
61433;SDS011;47300;46.192;9.000;2022-11-18T03:22:52;14.43;;;7.43;;
61433;SDS011;47300;46.192;9.000;2022-11-18T03:25:26;13.30;;;7.22;;
61433;SDS011;47300;46.192;9.000;2022-11-18T03:28:10;21.77;;;7.68;;
61433;SDS011;47300;46.192;9.000;2022-11-18T03:30:43;12.63;;;7.80;;
61433;SDS011;47300;46.192;9.000;2022-11-18T03:33:14;12.85;;;6.82;;
61433;SDS011;47300;46.192;9.000;2022-11-18T03:35:44;12.63;;;6.68;;
61433;SDS011;47300;46.192;9.000;2022-11-18T03:38:15;13.00;;;7.72;;
61433;SDS011;47300;46.192;9.000;2022-11-18T03:40:47;14.48;;;7.70;;
61433;SDS011;47300;46.192;9.000;2022-11-18T03:43:18;13.13;;;6.78;;
61433;SDS011;47300;46.192;9.000;2022-11-18T03:45:50;12.98;;;6.72;;
61433;SDS011;47300;46.192;9.000;2022-11-18T03:48:30;13.18;;;7.18;;
61433;SDS011;47300;46.192;9.000;2022-11-18T03:51:04;11.13;;;6.85;;
61433;SDS011;47300;46.192;9.000;2022-11-18T03:53:33;10.60;;;5.68;;
61433;SDS011;47300;46.192;9.000;2022-11-18T03:56:18;11.73;;;5.50;;
61433;SDS011;47300;46.192;9.000;2022-11-18T03:58:52;12.23;;;5.93;;
61433;SDS011;47300;46.192;9.000;2022-11-18T04:01:33;13.50;;;6.50;;
61433;SDS011;47300;46.192;9.000;2022-11-18T04:04:05;15.77;;;7.00;;
61433;SDS011;47300;46.192;9.000;2022-11-18T04:09:12;14.00;;;6.88;;
61433;SDS011;47300;46.192;9.000;2022-11-18T04:11:44;14.13;;;6.75;;
61433;SDS011;47300;46.192;9.000;2022-11-18T04:14:27;11.30;;;6.57;;
61433;SDS011;47300;46.192;9.000;2022-11-18T04:17:04;12.25;;;6.60;;
61433;SDS011;47300;46.192;9.000;2022-11-18T04:19:33;11.68;;;6.38;;
61433;SDS011;47300;46.192;9.000;2022-11-18T04:21:58;12.88;;;6.82;;
61433;SDS011;47300;46.192;9.000;2022-11-18T04:24:23;11.80;;;7.95;;
61433;SDS011;47300;46.192;9.000;2022-11-18T04:26:49;16.23;;;7.22;;
61433;SDS011;47300;46.192;9.000;2022-11-18T04:29:14;17.05;;;8.07;;
61433;SDS011;47300;46.192;9.000;2022-11-18T04:31:39;12.18;;;7.13;;
61433;SDS011;47300;46.192;9.000;2022-11-18T04:34:05;13.35;;;7.50;;
61433;SDS011;47300;46.192;9.000;2022-11-18T04:36:30;15.77;;;6.65;;
61433;SDS011;47300;46.192;9.000;2022-11-18T04:38:55;9.77;;;5.47;;
61433;SDS011;47300;46.192;9.000;2022-11-18T04:41:21;13.00;;;6.20;;
61433;SDS011;47300;46.192;9.000;2022-11-18T04:44:06;8.63;;;5.22;;
61433;SDS011;47300;46.192;9.000;2022-11-18T04:46:36;9.48;;;5.07;;
61433;SDS011;47300;46.192;9.000;2022-11-18T04:49:02;10.50;;;4.95;;
61433;SDS011;47300;46.192;9.000;2022-11-18T04:51:28;9.40;;;4.60;;
61433;SDS011;47300;46.192;9.000;2022-11-18T04:53:53;11.25;;;4.55;;
61433;SDS011;47300;46.192;9.000;2022-11-18T04:56:18;11.18;;;4.95;;
61433;SDS011;47300;46.192;9.000;2022-11-18T04:58:43;15.25;;;5.40;;
61433;SDS011;47300;46.192;9.000;2022-11-18T05:01:09;14.10;;;5.97;;
61433;SDS011;47300;46.192;9.000;2022-11-18T05:03:34;9.95;;;5.88;;
61433;SDS011;47300;46.192;9.000;2022-11-18T05:06:00;23.80;;;6.15;;
61433;SDS011;47300;46.192;9.000;2022-11-18T05:08:26;10.65;;;6.22;;
61433;SDS011;47300;46.192;9.000;2022-11-18T05:10:51;15.90;;;7.70;;
61433;SDS011;47300;46.192;9.000;2022-11-18T05:13:36;12.90;;;6.50;;
61433;SDS011;47300;46.192;9.000;2022-11-18T05:16:01;12.93;;;7.15;;
61433;SDS011;47300;46.192;9.000;2022-11-18T05:18:27;12.20;;;6.32;;
61433;SDS011;47300;46.192;9.000;2022-11-18T05:20:52;13.23;;;6.93;;
61433;SDS011;47300;46.192;9.000;2022-11-18T05:23:17;12.93;;;7.70;;
61433;SDS011;47300;46.192;9.000;2022-11-18T05:25:43;14.40;;;6.60;;
61433;SDS011;47300;46.192;9.000;2022-11-18T05:28:08;10.05;;;4.82;;
61433;SDS011;47300;46.192;9.000;2022-11-18T05:30:33;10.65;;;5.95;;
61433;SDS011;47300;46.192;9.000;2022-11-18T05:32:58;10.93;;;6.25;;
61433;SDS011;47300;46.192;9.000;2022-11-18T05:35:24;14.02;;;7.20;;
61433;SDS011;47300;46.192;9.000;2022-11-18T05:37:49;11.07;;;7.00;;
61433;SDS011;47300;46.192;9.000;2022-11-18T05:40:14;11.30;;;5.85;;
61433;SDS011;47300;46.192;9.000;2022-11-18T05:42:40;16.00;;;7.20;;
61433;SDS011;47300;46.192;9.000;2022-11-18T05:45:24;10.93;;;6.75;;
61433;SDS011;47300;46.192;9.000;2022-11-18T05:47:49;15.18;;;6.65;;
61433;SDS011;47300;46.192;9.000;2022-11-18T05:50:28;13.90;;;6.30;;
61433;SDS011;47300;46.192;9.000;2022-11-18T05:52:54;23.02;;;6.00;;
61433;SDS011;47300;46.192;9.000;2022-11-18T05:55:19;12.68;;;5.28;;
61433;SDS011;47300;46.192;9.000;2022-11-18T05:57:48;9.98;;;5.43;;
61433;SDS011;47300;46.192;9.000;2022-11-18T06:00:14;10.07;;;5.15;;
61433;SDS011;47300;46.192;9.000;2022-11-18T06:02:40;14.05;;;5.25;;
61433;SDS011;47300;46.192;9.000;2022-11-18T06:05:07;12.57;;;6.75;;
61433;SDS011;47300;46.192;9.000;2022-11-18T06:07:41;12.13;;;6.80;;
61433;SDS011;47300;46.192;9.000;2022-11-18T06:10:12;8.63;;;4.65;;
61433;SDS011;47300;46.192;9.000;2022-11-18T06:12:43;14.82;;;5.47;;
61433;SDS011;47300;46.192;9.000;2022-11-18T06:18:01;9.43;;;4.72;;
61433;SDS011;47300;46.192;9.000;2022-11-18T06:20:39;10.80;;;4.82;;
61433;SDS011;47300;46.192;9.000;2022-11-18T06:23:06;8.23;;;4.80;;
61433;SDS011;47300;46.192;9.000;2022-11-18T06:25:31;9.73;;;5.32;;
61433;SDS011;47300;46.192;9.000;2022-11-18T06:27:59;8.93;;;5.47;;
61433;SDS011;47300;46.192;9.000;2022-11-18T06:30:26;11.07;;;5.85;;
61433;SDS011;47300;46.192;9.000;2022-11-18T06:32:51;15.25;;;7.00;;
61433;SDS011;47300;46.192;9.000;2022-11-18T06:35:17;11.07;;;5.63;;
61433;SDS011;47300;46.192;9.000;2022-11-18T06:37:42;13.07;;;5.65;;
61433;SDS011;47300;46.192;9.000;2022-11-18T06:40:08;11.68;;;5.32;;
61433;SDS011;47300;46.192;9.000;2022-11-18T06:42:33;9.68;;;5.70;;
61433;SDS011;47300;46.192;9.000;2022-11-18T06:45:17;12.80;;;6.15;;
61433;SDS011;47300;46.192;9.000;2022-11-18T06:47:42;11.93;;;5.13;;
61433;SDS011;47300;46.192;9.000;2022-11-18T06:50:08;11.38;;;5.93;;
61433;SDS011;47300;46.192;9.000;2022-11-18T06:52:33;9.68;;;5.45;;
61433;SDS011;47300;46.192;9.000;2022-11-18T06:54:58;11.20;;;5.50;;
61433;SDS011;47300;46.192;9.000;2022-11-18T06:57:24;8.50;;;5.43;;
61433;SDS011;47300;46.192;9.000;2022-11-18T06:59:49;9.75;;;4.90;;
61433;SDS011;47300;46.192;9.000;2022-11-18T07:02:15;10.23;;;5.28;;
61433;SDS011;47300;46.192;9.000;2022-11-18T07:04:42;10.87;;;5.90;;
61433;SDS011;47300;46.192;9.000;2022-11-18T07:07:08;9.70;;;4.90;;
61433;SDS011;47300;46.192;9.000;2022-11-18T07:09:34;10.32;;;5.40;;
61433;SDS011;47300;46.192;9.000;2022-11-18T07:12:00;12.35;;;5.45;;
61433;SDS011;47300;46.192;9.000;2022-11-18T07:14:26;11.05;;;5.38;;
61433;SDS011;47300;46.192;9.000;2022-11-18T07:16:51;15.77;;;6.65;;
61433;SDS011;47300;46.192;9.000;2022-11-18T07:19:16;11.07;;;5.47;;
61433;SDS011;47300;46.192;9.000;2022-11-18T07:21:42;10.18;;;4.72;;
61433;SDS011;47300;46.192;9.000;2022-11-18T07:24:08;8.25;;;4.30;;
61433;SDS011;47300;46.192;9.000;2022-11-18T07:29:02;7.57;;;3.35;;
61433;SDS011;47300;46.192;9.000;2022-11-18T07:31:27;8.02;;;3.42;;
61433;SDS011;47300;46.192;9.000;2022-11-18T07:33:53;11.13;;;3.60;;
61433;SDS011;47300;46.192;9.000;2022-11-18T07:36:23;6.85;;;3.22;;
61433;SDS011;47300;46.192;9.000;2022-11-18T07:38:50;7.22;;;3.15;;
61433;SDS011;47300;46.192;9.000;2022-11-18T07:41:20;6.88;;;2.97;;
61433;SDS011;47300;46.192;9.000;2022-11-18T07:43:47;9.90;;;3.70;;
61433;SDS011;47300;46.192;9.000;2022-11-18T07:48:44;7.70;;;3.97;;
61433;SDS011;47300;46.192;9.000;2022-11-18T07:51:10;9.75;;;5.30;;
61433;SDS011;47300;46.192;9.000;2022-11-18T07:53:37;13.50;;;5.57;;
61433;SDS011;47300;46.192;9.000;2022-11-18T07:56:03;11.65;;;4.97;;
61433;SDS011;47300;46.192;9.000;2022-11-18T07:58:29;12.25;;;5.28;;
61433;SDS011;47300;46.192;9.000;2022-11-18T08:00:54;13.55;;;5.63;;
61433;SDS011;47300;46.192;9.000;2022-11-18T08:03:27;10.95;;;5.15;;
61433;SDS011;47300;46.192;9.000;2022-11-18T08:05:59;15.20;;;4.55;;
61433;SDS011;47300;46.192;9.000;2022-11-18T08:08:25;8.65;;;4.07;;
61433;SDS011;47300;46.192;9.000;2022-11-18T08:10:53;10.25;;;4.00;;
61433;SDS011;47300;46.192;9.000;2022-11-18T08:13:20;11.73;;;3.88;;
61433;SDS011;47300;46.192;9.000;2022-11-18T08:15:45;7.20;;;3.50;;
61433;SDS011;47300;46.192;9.000;2022-11-18T08:18:11;9.30;;;4.43;;
61433;SDS011;47300;46.192;9.000;2022-11-18T08:20:36;10.38;;;4.25;;
61433;SDS011;47300;46.192;9.000;2022-11-18T08:23:01;12.98;;;5.25;;
61433;SDS011;47300;46.192;9.000;2022-11-18T08:25:27;9.32;;;3.88;;
61433;SDS011;47300;46.192;9.000;2022-11-18T08:27:53;12.07;;;4.80;;
61433;SDS011;47300;46.192;9.000;2022-11-18T08:30:19;13.05;;;5.97;;
61433;SDS011;47300;46.192;9.000;2022-11-18T08:32:44;10.50;;;4.07;;
61433;SDS011;47300;46.192;9.000;2022-11-18T08:35:09;10.32;;;3.80;;
61433;SDS011;47300;46.192;9.000;2022-11-18T08:37:35;8.00;;;3.45;;
61433;SDS011;47300;46.192;9.000;2022-11-18T08:40:00;7.65;;;3.35;;
61433;SDS011;47300;46.192;9.000;2022-11-18T08:42:26;9.07;;;2.90;;
61433;SDS011;47300;46.192;9.000;2022-11-18T08:44:51;8.20;;;3.00;;
61433;SDS011;47300;46.192;9.000;2022-11-18T08:47:16;8.85;;;2.58;;
61433;SDS011;47300;46.192;9.000;2022-11-18T08:49:42;8.00;;;2.83;;
61433;SDS011;47300;46.192;9.000;2022-11-18T08:52:08;9.57;;;2.97;;
61433;SDS011;47300;46.192;9.000;2022-11-18T08:54:33;9.07;;;3.47;;
61433;SDS011;47300;46.192;9.000;2022-11-18T08:56:59;7.03;;;2.92;;
61433;SDS011;47300;46.192;9.000;2022-11-18T08:59:25;8.20;;;3.13;;
61433;SDS011;47300;46.192;9.000;2022-11-18T09:01:50;6.50;;;3.13;;
61433;SDS011;47300;46.192;9.000;2022-11-18T09:04:15;5.55;;;2.58;;
61433;SDS011;47300;46.192;9.000;2022-11-18T09:06:41;7.00;;;2.83;;
61433;SDS011;47300;46.192;9.000;2022-11-18T09:09:06;7.10;;;2.40;;
61433;SDS011;47300;46.192;9.000;2022-11-18T09:11:32;4.88;;;2.40;;
61433;SDS011;47300;46.192;9.000;2022-11-18T09:13:59;6.75;;;2.20;;
61433;SDS011;47300;46.192;9.000;2022-11-18T09:16:25;6.25;;;2.40;;
61433;SDS011;47300;46.192;9.000;2022-11-18T09:18:51;4.97;;;2.50;;
61433;SDS011;47300;46.192;9.000;2022-11-18T09:21:17;6.38;;;2.60;;
61433;SDS011;47300;46.192;9.000;2022-11-18T09:23:43;8.50;;;3.00;;
61433;SDS011;47300;46.192;9.000;2022-11-18T09:26:10;7.07;;;2.55;;
61433;SDS011;47300;46.192;9.000;2022-11-18T09:28:37;6.72;;;3.17;;
61433;SDS011;47300;46.192;9.000;2022-11-18T09:31:03;6.35;;;2.63;;
61433;SDS011;47300;46.192;9.000;2022-11-18T09:33:33;5.38;;;2.13;;
61433;SDS011;47300;46.192;9.000;2022-11-18T09:35:59;9.60;;;2.10;;
61433;SDS011;47300;46.192;9.000;2022-11-18T09:38:24;12.95;;;3.05;;
61433;SDS011;47300;46.192;9.000;2022-11-18T09:49:13;5.18;;;2.45;;
61433;SDS011;47300;46.192;9.000;2022-11-18T09:51:45;6.65;;;2.60;;
61433;SDS011;47300;46.192;9.000;2022-11-18T09:54:32;8.45;;;3.20;;
61433;SDS011;47300;46.192;9.000;2022-11-18T09:56:59;8.38;;;2.95;;
61433;SDS011;47300;46.192;9.000;2022-11-18T09:59:26;7.55;;;2.70;;
61433;SDS011;47300;46.192;9.000;2022-11-18T10:01:56;6.50;;;2.67;;
61433;SDS011;47300;46.192;9.000;2022-11-18T10:04:27;7.90;;;3.08;;
61433;SDS011;47300;46.192;9.000;2022-11-18T10:06:52;6.05;;;2.60;;
61433;SDS011;47300;46.192;9.000;2022-11-18T10:22:55;3.72;;;1.77;;
61433;SDS011;47300;46.192;9.000;2022-11-18T10:25:26;7.10;;;1.92;;
61433;SDS011;47300;46.192;9.000;2022-11-18T10:27:52;7.05;;;1.98;;
61433;SDS011;47300;46.192;9.000;2022-11-18T10:30:23;6.57;;;2.20;;
61433;SDS011;47300;46.192;9.000;2022-11-18T10:33:03;4.07;;;1.70;;
61433;SDS011;47300;46.192;9.000;2022-11-18T10:35:40;5.95;;;1.92;;
61433;SDS011;47300;46.192;9.000;2022-11-18T10:38:16;6.38;;;1.92;;
61433;SDS011;47300;46.192;9.000;2022-11-18T10:40:43;6.20;;;1.42;;
61433;SDS011;47300;46.192;9.000;2022-11-18T10:43:09;2.40;;;0.90;;
61433;SDS011;47300;46.192;9.000;2022-11-18T10:45:35;3.33;;;1.20;;
61433;SDS011;47300;46.192;9.000;2022-11-18T10:50:40;4.70;;;1.85;;
61433;SDS011;47300;46.192;9.000;2022-11-18T10:56:10;4.60;;;1.48;;
61433;SDS011;47300;46.192;9.000;2022-11-18T10:58:40;5.63;;;1.85;;
61433;SDS011;47300;46.192;9.000;2022-11-18T11:03:42;6.07;;;1.73;;
61433;SDS011;47300;46.192;9.000;2022-11-18T11:11:35;6.07;;;1.65;;
61433;SDS011;47300;46.192;9.000;2022-11-18T11:14:22;3.85;;;1.70;;
61433;SDS011;47300;46.192;9.000;2022-11-18T11:19:35;5.32;;;1.63;;
61433;SDS011;47300;46.192;9.000;2022-11-18T11:22:08;5.18;;;1.90;;
61433;SDS011;47300;46.192;9.000;2022-11-18T11:24:35;5.10;;;1.83;;
61433;SDS011;47300;46.192;9.000;2022-11-18T11:27:04;7.85;;;1.60;;
61433;SDS011;47300;46.192;9.000;2022-11-18T11:30:02;8.57;;;1.73;;
61433;SDS011;47300;46.192;9.000;2022-11-18T11:38:28;3.58;;;1.90;;
61433;SDS011;47300;46.192;9.000;2022-11-18T11:41:20;6.38;;;2.72;;
61433;SDS011;47300;46.192;9.000;2022-11-18T11:43:54;4.95;;;2.05;;
61433;SDS011;47300;46.192;9.000;2022-11-18T11:51:41;4.97;;;1.85;;
61433;SDS011;47300;46.192;9.000;2022-11-18T11:59:27;5.65;;;1.80;;
61433;SDS011;47300;46.192;9.000;2022-11-18T12:02:28;7.88;;;1.77;;
61433;SDS011;47300;46.192;9.000;2022-11-18T12:05:02;5.07;;;1.95;;
61433;SDS011;47300;46.192;9.000;2022-11-18T12:07:53;5.68;;;1.90;;
61433;SDS011;47300;46.192;9.000;2022-11-18T12:10:34;4.28;;;1.65;;
61433;SDS011;47300;46.192;9.000;2022-11-18T12:26:41;4.70;;;1.88;;
61433;SDS011;47300;46.192;9.000;2022-11-18T12:31:49;4.00;;;1.55;;
61433;SDS011;47300;46.192;9.000;2022-11-18T12:36:49;4.15;;;1.55;;
61433;SDS011;47300;46.192;9.000;2022-11-18T12:41:51;5.75;;;1.83;;
61433;SDS011;47300;46.192;9.000;2022-11-18T12:44:35;4.13;;;1.48;;
61433;SDS011;47300;46.192;9.000;2022-11-18T12:47:02;4.88;;;1.63;;
61433;SDS011;47300;46.192;9.000;2022-11-18T12:51:54;3.67;;;1.23;;
61433;SDS011;47300;46.192;9.000;2022-11-18T12:57:25;8.43;;;1.83;;
61433;SDS011;47300;46.192;9.000;2022-11-18T12:59:53;4.35;;;1.40;;
61433;SDS011;47300;46.192;9.000;2022-11-18T13:02:22;5.22;;;1.40;;
61433;SDS011;47300;46.192;9.000;2022-11-18T13:05:01;2.72;;;1.25;;
61433;SDS011;47300;46.192;9.000;2022-11-18T13:07:29;5.28;;;1.02;;
61433;SDS011;47300;46.192;9.000;2022-11-18T13:10:24;4.20;;;1.20;;
61433;SDS011;47300;46.192;9.000;2022-11-18T13:12:53;2.25;;;1.08;;
61433;SDS011;47300;46.192;9.000;2022-11-18T13:15:19;1.75;;;0.50;;
61433;SDS011;47300;46.192;9.000;2022-11-18T13:18:07;5.45;;;0.85;;
61433;SDS011;47300;46.192;9.000;2022-11-18T13:20:38;1.55;;;0.40;;
61433;SDS011;47300;46.192;9.000;2022-11-18T13:25:52;3.08;;;0.28;;
61433;SDS011;47300;46.192;9.000;2022-11-18T13:34:26;0.30;;;0.30;;
61433;SDS011;47300;46.192;9.000;2022-11-18T13:36:54;2.80;;;0.45;;
61433;SDS011;47300;46.192;9.000;2022-11-18T13:39:29;0.47;;;0.28;;
61433;SDS011;47300;46.192;9.000;2022-11-18T13:42:00;1.13;;;0.47;;
61433;SDS011;47300;46.192;9.000;2022-11-18T13:44:33;0.85;;;0.32;;
61433;SDS011;47300;46.192;9.000;2022-11-18T13:49:36;0.88;;;0.40;;
61433;SDS011;47300;46.192;9.000;2022-11-18T13:52:17;0.85;;;0.40;;
61433;SDS011;47300;46.192;9.000;2022-11-18T13:54:54;0.30;;;0.30;;
61433;SDS011;47300;46.192;9.000;2022-11-18T13:57:22;1.60;;;0.40;;
61433;SDS011;47300;46.192;9.000;2022-11-18T13:59:49;3.53;;;0.40;;
61433;SDS011;47300;46.192;9.000;2022-11-18T14:02:17;2.17;;;0.40;;
61433;SDS011;47300;46.192;9.000;2022-11-18T14:04:55;0.88;;;0.40;;
61433;SDS011;47300;46.192;9.000;2022-11-18T14:09:52;0.75;;;0.50;;
61433;SDS011;47300;46.192;9.000;2022-11-18T14:12:23;0.40;;;0.30;;
61433;SDS011;47300;46.192;9.000;2022-11-18T14:14:52;1.00;;;0.40;;
61433;SDS011;47300;46.192;9.000;2022-11-18T14:17:35;3.10;;;0.30;;
61433;SDS011;47300;46.192;9.000;2022-11-18T14:20:05;0.25;;;0.25;;
61433;SDS011;47300;46.192;9.000;2022-11-18T14:22:32;0.30;;;0.30;;
61433;SDS011;47300;46.192;9.000;2022-11-18T14:24:59;0.45;;;0.40;;
61433;SDS011;47300;46.192;9.000;2022-11-18T14:27:47;0.30;;;0.30;;
61433;SDS011;47300;46.192;9.000;2022-11-18T14:35:39;0.45;;;0.32;;
61433;SDS011;47300;46.192;9.000;2022-11-18T14:40:39;0.63;;;0.43;;
61433;SDS011;47300;46.192;9.000;2022-11-18T14:43:05;1.40;;;0.40;;
61433;SDS011;47300;46.192;9.000;2022-11-18T14:45:31;0.30;;;0.30;;
61433;SDS011;47300;46.192;9.000;2022-11-18T14:47:56;2.40;;;0.50;;
61433;SDS011;47300;46.192;9.000;2022-11-18T14:50:22;0.30;;;0.30;;
61433;SDS011;47300;46.192;9.000;2022-11-18T14:52:47;0.30;;;0.30;;
61433;SDS011;47300;46.192;9.000;2022-11-18T14:55:12;0.30;;;0.30;;
61433;SDS011;47300;46.192;9.000;2022-11-18T14:57:38;0.95;;;0.40;;
61433;SDS011;47300;46.192;9.000;2022-11-18T15:00:03;0.30;;;0.30;;
61433;SDS011;47300;46.192;9.000;2022-11-18T15:02:29;0.65;;;0.43;;
61433;SDS011;47300;46.192;9.000;2022-11-18T15:04:54;0.98;;;0.32;;
61433;SDS011;47300;46.192;9.000;2022-11-18T15:07:20;0.20;;;0.20;;
61433;SDS011;47300;46.192;9.000;2022-11-18T15:09:46;0.35;;;0.30;;
61433;SDS011;47300;46.192;9.000;2022-11-18T15:12:11;0.77;;;0.30;;
61433;SDS011;47300;46.192;9.000;2022-11-18T15:14:36;1.77;;;0.70;;
61433;SDS011;47300;46.192;9.000;2022-11-18T15:17:02;0.40;;;0.40;;
61433;SDS011;47300;46.192;9.000;2022-11-18T15:19:28;0.30;;;0.30;;
61433;SDS011;47300;46.192;9.000;2022-11-18T15:21:54;0.40;;;0.40;;
61433;SDS011;47300;46.192;9.000;2022-11-18T15:24:19;0.45;;;0.40;;
61433;SDS011;47300;46.192;9.000;2022-11-18T15:26:45;1.13;;;0.60;;
61433;SDS011;47300;46.192;9.000;2022-11-18T15:29:16;0.73;;;0.60;;
61433;SDS011;47300;46.192;9.000;2022-11-18T15:31:43;1.02;;;0.50;;
61433;SDS011;47300;46.192;9.000;2022-11-18T15:34:09;0.65;;;0.45;;
61433;SDS011;47300;46.192;9.000;2022-11-18T15:36:34;0.73;;;0.50;;
61433;SDS011;47300;46.192;9.000;2022-11-18T15:39:00;3.05;;;0.60;;
61433;SDS011;47300;46.192;9.000;2022-11-18T15:41:26;0.70;;;0.50;;
61433;SDS011;47300;46.192;9.000;2022-11-18T15:43:54;1.17;;;0.50;;
61433;SDS011;47300;46.192;9.000;2022-11-18T15:46:21;0.95;;;0.50;;
61433;SDS011;47300;46.192;9.000;2022-11-18T15:48:50;0.82;;;0.40;;
61433;SDS011;47300;46.192;9.000;2022-11-18T15:51:17;2.25;;;0.50;;
61433;SDS011;47300;46.192;9.000;2022-11-18T15:53:43;0.40;;;0.40;;
61433;SDS011;47300;46.192;9.000;2022-11-18T15:56:15;0.65;;;0.43;;
61433;SDS011;47300;46.192;9.000;2022-11-18T15:58:57;0.95;;;0.40;;
61433;SDS011;47300;46.192;9.000;2022-11-18T16:01:36;1.67;;;0.60;;
61433;SDS011;47300;46.192;9.000;2022-11-18T16:04:04;4.07;;;0.70;;
61433;SDS011;47300;46.192;9.000;2022-11-18T16:06:30;1.50;;;0.43;;
61433;SDS011;47300;46.192;9.000;2022-11-18T16:08:56;2.67;;;0.50;;
61433;SDS011;47300;46.192;9.000;2022-11-18T16:11:22;0.98;;;0.50;;
61433;SDS011;47300;46.192;9.000;2022-11-18T16:14:10;2.35;;;0.73;;
61433;SDS011;47300;46.192;9.000;2022-11-18T16:16:37;0.40;;;0.40;;
61433;SDS011;47300;46.192;9.000;2022-11-18T16:19:05;0.50;;;0.38;;
61433;SDS011;47300;46.192;9.000;2022-11-18T16:21:33;1.10;;;0.47;;
61433;SDS011;47300;46.192;9.000;2022-11-18T16:24:00;1.83;;;0.68;;
61433;SDS011;47300;46.192;9.000;2022-11-18T16:26:27;0.47;;;0.40;;
61433;SDS011;47300;46.192;9.000;2022-11-18T16:28:54;1.02;;;0.50;;
61433;SDS011;47300;46.192;9.000;2022-11-18T16:31:20;1.58;;;0.77;;
61433;SDS011;47300;46.192;9.000;2022-11-18T16:34:05;3.90;;;0.50;;
61433;SDS011;47300;46.192;9.000;2022-11-18T16:36:31;0.45;;;0.45;;
61433;SDS011;47300;46.192;9.000;2022-11-18T16:38:56;1.55;;;0.55;;
61433;SDS011;47300;46.192;9.000;2022-11-18T16:41:22;0.80;;;0.50;;
61433;SDS011;47300;46.192;9.000;2022-11-18T16:43:56;0.75;;;0.30;;
61433;SDS011;47300;46.192;9.000;2022-11-18T16:46:27;2.08;;;0.90;;
61433;SDS011;47300;46.192;9.000;2022-11-18T16:48:54;4.90;;;1.33;;
61433;SDS011;47300;46.192;9.000;2022-11-18T16:51:24;1.85;;;0.68;;
61433;SDS011;47300;46.192;9.000;2022-11-18T16:53:51;7.22;;;4.28;;
61433;SDS011;47300;46.192;9.000;2022-11-18T16:56:21;4.35;;;1.63;;
61433;SDS011;47300;46.192;9.000;2022-11-18T16:58:48;3.10;;;1.08;;
61433;SDS011;47300;46.192;9.000;2022-11-18T17:01:13;5.53;;;2.75;;
61433;SDS011;47300;46.192;9.000;2022-11-18T17:03:39;4.45;;;0.60;;
61433;SDS011;47300;46.192;9.000;2022-11-18T17:06:05;2.90;;;1.20;;
61433;SDS011;47300;46.192;9.000;2022-11-18T17:08:34;2.22;;;1.00;;
61433;SDS011;47300;46.192;9.000;2022-11-18T17:11:07;0.70;;;0.50;;